Time;durP1;ratioP1;P1;durP2;ratioP2;P2;SDS_P1;SDS_P2;PMS_P1;PMS_P2;Temp;Humidity;BMP_temperature;BMP_pressure;BME280_temperature;BME280_humidity;BME280_pressure;Samples;Min_cycle;Max_cycle;Signal;HPM_P1;HPM_P2
2021/01/06 00:02:00;;;;;;;;;;;;;;;9.07;43.80;101656.53;6190194;23;19931;-78
2021/01/06 00:04:28;;;;;;;;;;;;;;;9.03;43.61;101646.03;6190481;23;19958;-78
2021/01/06 00:06:55;;;;;;;;;;;;;;;8.98;44.20;101651.31;6190408;23;19929;-78
2021/01/06 00:09:22;;;;;;;;;;;;;;;8.97;44.82;101644.31;6186107;23;19942;-78
2021/01/06 00:11:49;;;;;;;;;;;;;;;8.93;44.69;101645.19;6160120;23;19921;-78
2021/01/06 00:14:16;;;;;;;;;;;;;;;8.93;44.84;101642.56;6190800;23;19954;-78
2021/01/06 00:16:43;;;;;;;;;;;;;;;8.91;44.94;101639.94;6163553;23;19920;-78
2021/01/06 00:19:12;;;;;;;;;;;;;;;8.90;45.57;101640.81;6189019;23;19925;-77
2021/01/06 00:21:39;;;;;;;;;;;;;;;8.87;45.59;101629.44;6189627;23;19940;-77
2021/01/06 00:24:06;;;;;;;;;;;;;;;8.85;45.66;101628.53;6184641;23;19973;-77
2021/01/06 00:26:34;;;;;;;;;;;;;;;8.84;45.79;101626.78;6189065;23;19927;-78
2021/01/06 00:29:01;;;;;;;;;;;;;;;8.83;46.28;101625.06;6191194;23;19924;-77
2021/01/06 00:31:28;;;;;;;;;;;;;;;8.81;45.95;101625.03;6165070;23;19920;-78
2021/01/06 00:33:54;;;;;;;;;;;;;;;8.79;46.32;101619.78;6190092;23;20019;-78
2021/01/06 00:36:22;;;;;;;;;;;;;;;8.78;46.61;101615.38;6185428;23;19920;-78
2021/01/06 00:38:50;;;;;;;;;;;;;;;8.76;46.59;101616.28;6183205;23;19973;-78
2021/01/06 00:41:24;;;;;;;;;;;;;;;8.74;46.48;101607.50;6186020;23;19942;-78
2021/01/06 00:43:52;;;;;;;;;;;;;;;8.72;46.55;101604.00;6188575;22;19924;-77
2021/01/06 00:46:19;;;;;;;;;;;;;;;8.72;46.88;101601.34;6161775;23;19975;-77
2021/01/06 00:48:46;;;;;;;;;;;;;;;8.70;46.93;101605.78;6186796;23;19921;-78
2021/01/06 00:51:13;;;;;;;;;;;;;;;8.68;47.24;101600.53;6158207;23;19925;-77
2021/01/06 00:53:41;;;;;;;;;;;;;;;8.64;46.98;101598.75;6156679;23;19920;-77
2021/01/06 00:56:08;;;;;;;;;;;;;;;8.62;46.97;101595.28;6162671;23;20027;-77
2021/01/06 00:58:36;;;;;;;;;;;;;;;8.61;47.05;101599.66;6164473;23;19920;-77
2021/01/06 01:01:08;;;;;;;;;;;;;;;8.59;47.21;101596.16;6163760;23;19973;-77
2021/01/06 01:03:40;;;;;;;;;;;;;;;8.58;47.20;101589.13;6164308;23;19972;-77
2021/01/06 01:06:09;;;;;;;;;;;;;;;8.57;47.64;101582.09;6182809;23;19965;-77
2021/01/06 01:08:35;;;;;;;;;;;;;;;8.55;47.59;101575.06;6186971;23;19955;-78
2021/01/06 01:11:03;;;;;;;;;;;;;;;8.53;47.95;101584.78;6188701;23;19920;-77
2021/01/06 01:13:30;;;;;;;;;;;;;;;8.53;47.37;101588.28;6163819;23;19932;-77
2021/01/06 01:15:58;;;;;;;;;;;;;;;8.50;47.88;101580.41;6188206;23;19921;-77
2021/01/06 01:18:26;;;;;;;;;;;;;;;8.47;47.79;101581.28;6162301;23;19928;-77
2021/01/06 01:20:53;;;;;;;;;;;;;;;8.47;47.89;101576.00;6186205;23;19935;-77
2021/01/06 01:23:21;;;;;;;;;;;;;;;8.44;47.67;101570.72;6162878;23;19959;-77
2021/01/06 01:25:49;;;;;;;;;;;;;;;8.42;48.48;101567.22;6188611;23;19999;-77
2021/01/06 01:28:18;;;;;;;;;;;;;;;8.42;47.91;101559.31;6163512;23;19968;-77
2021/01/06 01:30:45;;;;;;;;;;;;;;;8.40;47.91;101565.47;6189822;23;19976;-77
2021/01/06 01:33:12;;;;;;;;;;;;;;;8.37;48.74;101563.72;6161376;23;19968;-77
2021/01/06 01:35:39;;;;;;;;;;;;;;;8.34;48.45;101561.13;6186633;23;19924;-77
2021/01/06 01:38:13;;;;;;;;;;;;;;;8.30;48.34;101557.59;6188017;23;19921;-77
2021/01/06 01:40:41;;;;;;;;;;;;;;;8.32;48.81;101544.41;6190777;23;20362;-77
2021/01/06 01:43:14;;;;;;;;;;;;;;;8.29;48.41;101547.94;6164427;23;20355;-77
2021/01/06 01:45:56;;;;;;;;;;;;;;;8.31;48.52;101540.91;6191357;23;19920;-78
2021/01/06 01:48:28;;;;;;;;;;;;;;;8.35;48.40;101543.53;6185250;23;19920;-77
2021/01/06 01:50:57;;;;;;;;;;;;;;;8.38;48.63;101544.38;6161495;22;20282;-78
2021/01/06 01:53:28;;;;;;;;;;;;;;;8.38;48.35;101536.47;6163824;23;19964;-78
2021/01/06 01:55:55;;;;;;;;;;;;;;;8.44;48.33;101531.19;6190528;23;19921;-78
2021/01/06 01:58:25;;;;;;;;;;;;;;;8.44;48.16;101536.44;6164261;23;19920;-78
2021/01/06 02:00:55;;;;;;;;;;;;;;;8.48;48.47;101534.69;6185724;23;19943;-77
2021/01/06 02:03:24;;;;;;;;;;;;;;;8.53;47.82;101532.03;6185395;23;19924;-78
2021/01/06 02:05:53;;;;;;;;;;;;;;;8.56;48.22;101524.09;6188243;23;19924;-78
2021/01/06 02:08:22;;;;;;;;;;;;;;;8.61;48.25;101525.78;6162901;23;19931;-78
2021/01/06 02:10:52;;;;;;;;;;;;;;;8.63;48.18;101525.81;6189491;23;19920;-78
2021/01/06 02:13:22;;;;;;;;;;;;;;;8.64;48.10;101522.25;6163219;23;19924;-77
2021/01/06 02:15:54;;;;;;;;;;;;;;;8.68;47.95;101513.47;6187102;23;19942;-77
2021/01/06 02:18:21;;;;;;;;;;;;;;;8.69;48.29;101515.19;6187801;23;19924;-78
2021/01/06 02:21:04;;;;;;;;;;;;;;;8.69;48.04;101515.19;6162499;23;19931;-78
2021/01/06 02:23:31;;;;;;;;;;;;;;;8.73;47.97;101505.50;6188690;23;19928;-78
2021/01/06 02:25:58;;;;;;;;;;;;;;;8.71;48.07;101507.31;6190346;22;19924;-77
2021/01/06 02:28:25;;;;;;;;;;;;;;;8.70;48.10;101492.34;6187207;23;20377;-77
2021/01/06 02:30:52;;;;;;;;;;;;;;;8.69;48.24;101503.78;6185751;23;19924;-77
2021/01/06 02:33:19;;;;;;;;;;;;;;;8.70;48.51;101497.63;6190471;23;19927;-77
2021/01/06 02:35:46;;;;;;;;;;;;;;;8.68;48.77;101489.72;6162753;23;19951;-77
2021/01/06 02:38:14;;;;;;;;;;;;;;;8.66;48.70;101488.00;6164104;23;19924;-77
2021/01/06 02:40:41;;;;;;;;;;;;;;;8.67;48.59;101493.25;6190145;23;19991;-78
2021/01/06 02:43:07;;;;;;;;;;;;;;;8.64;48.59;101495.88;6185331;23;19920;-77
2021/01/06 02:45:34;;;;;;;;;;;;;;;8.63;48.85;101480.97;6160671;22;19920;-77
2021/01/06 02:48:02;;;;;;;;;;;;;;;8.62;48.75;101480.06;6189022;23;19931;-77
2021/01/06 02:50:29;;;;;;;;;;;;;;;8.61;48.51;101473.03;6190366;23;19946;-77
2021/01/06 02:52:58;;;;;;;;;;;;;;;8.60;49.07;101470.44;6164096;22;19921;-78
2021/01/06 02:55:28;;;;;;;;;;;;;;;8.60;48.91;101465.16;6164876;22;20156;-77
2021/01/06 02:57:55;;;;;;;;;;;;;;;8.56;48.93;101459.06;6186300;23;19924;-77
2021/01/06 03:00:23;;;;;;;;;;;;;;;8.56;48.81;101453.78;6161259;23;19926;-77
2021/01/06 03:02:51;;;;;;;;;;;;;;;8.54;49.38;101452.91;6190506;23;19924;-77
2021/01/06 03:05:20;;;;;;;;;;;;;;;8.52;49.45;101459.06;6164285;23;20397;-78
2021/01/06 03:07:48;;;;;;;;;;;;;;;8.50;49.07;101447.66;6190192;23;19920;-77
2021/01/06 03:10:16;;;;;;;;;;;;;;;8.48;48.90;101439.75;6163844;23;20246;-77
2021/01/06 03:12:45;;;;;;;;;;;;;;;8.48;49.37;101447.66;6185478;23;20399;-77
2021/01/06 03:15:14;;;;;;;;;;;;;;;8.46;49.19;101444.19;6189252;23;19932;-77
2021/01/06 03:17:41;;;;;;;;;;;;;;;8.43;49.66;101439.78;6189502;23;19932;-78
2021/01/06 03:20:09;;;;;;;;;;;;;;;8.43;49.38;101444.16;6190792;23;20356;-77
2021/01/06 03:22:39;;;;;;;;;;;;;;;8.40;49.36;101436.28;6192066;23;19924;-77
2021/01/06 03:25:09;;;;;;;;;;;;;;;8.40;49.52;101436.28;6162447;22;19972;-78
2021/01/06 03:27:37;;;;;;;;;;;;;;;8.37;49.90;101423.97;6187362;23;19932;-77
2021/01/06 03:30:06;;;;;;;;;;;;;;;8.38;49.44;101433.66;6191414;22;19982;-78
2021/01/06 03:32:38;;;;;;;;;;;;;;;8.35;49.57;101423.09;6191091;23;19920;-78
2021/01/06 03:35:09;;;;;;;;;;;;;;;8.30;49.69;101417.88;6164391;23;19967;-78
2021/01/06 03:37:40;;;;;;;;;;;;;;;8.30;49.72;101422.28;6165809;23;20403;-78
2021/01/06 03:40:11;;;;;;;;;;;;;;;8.28;49.83;101418.78;6162231;23;19920;-78
2021/01/06 03:42:39;;;;;;;;;;;;;;;8.28;49.72;101414.38;6186918;23;19924;-78
2021/01/06 03:45:08;;;;;;;;;;;;;;;8.28;50.08;101411.75;6165086;23;19942;-78
2021/01/06 03:47:39;;;;;;;;;;;;;;;8.28;49.82;101406.47;6189270;23;20003;-78
2021/01/06 03:50:12;;;;;;;;;;;;;;;8.30;50.25;101396.78;6190271;23;19924;-77
2021/01/06 03:52:56;;;;;;;;;;;;;;;8.35;49.89;101396.75;6188087;23;20019;-77
2021/01/06 03:55:29;;;;;;;;;;;;;;;8.38;49.54;101395.84;6188336;23;19974;-77
2021/01/06 03:57:57;;;;;;;;;;;;;;;8.40;49.60;101391.44;6188502;23;19992;-77
2021/01/06 04:00:44;;;;;;;;;;;;;;;8.44;50.06;101390.53;6164511;22;19931;-77
2021/01/06 04:03:18;;;;;;;;;;;;;;;8.46;49.73;101381.75;6184284;23;19924;-77
2021/01/06 04:05:45;;;;;;;;;;;;;;;8.47;49.54;101382.66;6183182;23;19925;-77
2021/01/06 04:08:16;;;;;;;;;;;;;;;8.53;49.86;101379.06;6156424;23;19974;-77
2021/01/06 04:10:47;;;;;;;;;;;;;;;8.58;49.80;101369.38;6158429;23;19925;-77
2021/01/06 04:13:14;;;;;;;;;;;;;;;8.58;49.19;101369.38;6160322;23;19925;-77
2021/01/06 04:15:42;;;;;;;;;;;;;;;8.60;49.12;101368.47;6158575;23;19924;-77
2021/01/06 04:18:09;;;;;;;;;;;;;;;8.60;49.32;101362.28;6161824;23;20151;-77
2021/01/06 04:20:36;;;;;;;;;;;;;;;8.62;49.78;101350.84;6158510;23;19956;-77
2021/01/06 04:23:05;;;;;;;;;;;;;;;8.60;49.49;101347.38;6178708;23;19924;-77
2021/01/06 04:25:34;;;;;;;;;;;;;;;8.62;49.95;101340.28;6184198;23;19947;-78
2021/01/06 04:28:02;;;;;;;;;;;;;;;8.61;49.93;101337.69;6161035;23;20171;-77
2021/01/06 04:30:32;;;;;;;;;;;;;;;8.62;49.79;101339.44;6159676;23;19920;-77
2021/01/06 04:33:02;;;;;;;;;;;;;;;8.60;49.66;101325.38;6185224;23;19921;-77
2021/01/06 04:35:29;;;;;;;;;;;;;;;8.59;49.72;101329.78;6179849;23;19947;-77
2021/01/06 04:37:57;;;;;;;;;;;;;;;8.60;49.76;101317.47;6178534;23;19929;-77
2021/01/06 04:40:25;;;;;;;;;;;;;;;8.57;49.50;101317.50;6182130;23;20118;-77
2021/01/06 04:42:57;;;;;;;;;;;;;;;8.58;49.73;101309.56;6158519;23;19924;-77
2021/01/06 04:45:29;;;;;;;;;;;;;;;8.57;49.74;101305.19;6181957;23;19921;-77
2021/01/06 04:48:05;;;;;;;;;;;;;;;8.57;49.83;101306.94;6182074;23;19929;-76
2021/01/06 04:50:49;;;;;;;;;;;;;;;8.54;49.81;101299.09;6153479;23;19924;-77
2021/01/06 04:53:23;;;;;;;;;;;;;;;8.52;49.92;101293.78;6179918;23;19925;-78
2021/01/06 04:55:57;;;;;;;;;;;;;;;8.53;50.08;101292.06;6158511;23;19924;-77
2021/01/06 04:58:28;;;;;;;;;;;;;;;8.50;50.10;101289.44;6181611;23;20013;-76
2021/01/06 05:01:04;;;;;;;;;;;;;;;8.48;50.06;101292.09;6159004;23;19947;-77
2021/01/06 05:03:51;;;;;;;;;;;;;;;8.47;50.39;101290.38;6185184;23;19925;-76
2021/01/06 05:06:24;;;;;;;;;;;;;;;8.43;50.22;101286.84;6189065;23;19927;-77
2021/01/06 05:08:53;;;;;;;;;;;;;;;8.43;50.50;101291.22;6163474;22;19936;-77
2021/01/06 05:11:22;;;;;;;;;;;;;;;8.42;50.71;101284.22;6189122;23;19955;-77
2021/01/06 05:13:52;;;;;;;;;;;;;;;8.39;50.44;101286.88;6189028;22;19920;-76
2021/01/06 05:16:21;;;;;;;;;;;;;;;8.38;50.34;101288.66;6188263;23;19928;-77
2021/01/06 05:18:48;;;;;;;;;;;;;;;8.37;50.50;101284.25;6186330;23;19940;-77
2021/01/06 05:21:17;;;;;;;;;;;;;;;8.39;50.48;101276.31;6187333;23;19981;-77
2021/01/06 05:23:47;;;;;;;;;;;;;;;8.36;50.30;101273.72;6190744;23;20007;-77
2021/01/06 05:26:15;;;;;;;;;;;;;;;8.45;49.95;101281.53;6190318;23;19947;-77
2021/01/06 05:28:43;;;;;;;;;;;;;;;8.60;48.44;101275.25;6190240;23;19930;-77
2021/01/06 05:31:10;;;;;;;;;;;;;;;8.69;47.62;101274.28;6186801;23;19924;-77
2021/01/06 05:33:38;;;;;;;;;;;;;;;8.77;46.19;101256.59;6187954;23;19920;-76
2021/01/06 05:36:05;;;;;;;;;;;;;;;8.83;44.99;101255.69;6188872;23;19927;-77
2021/01/06 05:38:33;;;;;;;;;;;;;;;8.86;44.20;101261.78;6163549;23;19924;-77
2021/01/06 05:40:59;;;;;;;;;;;;;;;8.85;44.46;101265.31;6165212;23;19995;-77
2021/01/06 05:43:39;;;;;;;;;;;;;;;8.89;43.68;101255.59;6163906;23;20268;-77
2021/01/06 05:46:08;;;;;;;;;;;;;;;8.98;42.91;101258.09;6187846;23;19930;-77
2021/01/06 05:48:37;;;;;;;;;;;;;;;9.03;42.22;101256.28;6161239;23;19931;-77
2021/01/06 05:51:05;;;;;;;;;;;;;;;8.95;42.32;101260.78;6188467;23;19928;-77
2021/01/06 05:53:36;;;;;;;;;;;;;;;8.78;43.31;101253.09;6163880;23;19943;-77
2021/01/06 05:56:04;;;;;;;;;;;;;;;8.70;44.26;101253.16;6190759;23;19920;-78
2021/01/06 05:58:33;;;;;;;;;;;;;;;8.67;44.34;101258.50;6162029;23;19964;-77
2021/01/06 06:01:08;;;;;;;;;;;;;;;8.67;45.20;101250.59;6186089;23;20007;-77
2021/01/06 06:03:48;;;;;;;;;;;;;;;8.69;44.96;101258.47;6187520;23;19924;-77
2021/01/06 06:06:30;;;;;;;;;;;;;;;8.71;45.80;101254.06;6189421;23;19946;-78
2021/01/06 06:09:03;;;;;;;;;;;;;;;8.74;45.34;101251.38;6206459;23;19924;-77
2021/01/06 06:12:01;;;;;;;;;;;;;;;8.74;45.63;101252.25;6190556;23;19924;-77
2021/01/06 06:14:49;;;;;;;;;;;;;;;8.78;45.79;101243.41;6186608;23;20296;-77
2021/01/06 06:17:22;;;;;;;;;;;;;;;8.78;45.92;101240.75;6213555;22;20003;-77
2021/01/06 06:20:08;;;;;;;;;;;;;;;8.79;46.19;101237.22;6187745;23;19928;-77
2021/01/06 06:22:38;;;;;;;;;;;;;;;8.78;46.34;101237.25;6190721;23;19942;-77
2021/01/06 06:25:14;;;;;;;;;;;;;;;8.79;46.83;101233.72;6164473;23;19921;-77
2021/01/06 06:27:52;;;;;;;;;;;;;;;8.76;46.69;101236.38;6159890;23;19966;-77
2021/01/06 06:30:22;;;;;;;;;;;;;;;8.78;46.81;101232.84;6186532;23;19975;-77
2021/01/06 06:32:51;;;;;;;;;;;;;;;8.80;46.97;101227.56;6162419;23;19963;-77
2021/01/06 06:35:21;;;;;;;;;;;;;;;8.77;46.96;101232.88;6188643;22;19968;-77
2021/01/06 06:37:48;;;;;;;;;;;;;;;8.77;47.19;101225.84;6189335;23;19943;-77
2021/01/06 06:40:15;;;;;;;;;;;;;;;8.76;47.33;101223.19;6189329;23;19925;-77
2021/01/06 06:42:47;;;;;;;;;;;;;;;8.73;47.22;101226.78;6185555;23;20009;-77
2021/01/06 06:45:27;;;;;;;;;;;;;;;8.73;47.75;101218.88;6188230;23;19943;-77
2021/01/06 06:48:02;;;;;;;;;;;;;;;8.72;47.46;101229.41;6190130;23;19921;-77
2021/01/06 06:50:44;;;;;;;;;;;;;;;8.70;48.02;101218.88;6188254;23;19924;-76
2021/01/06 06:53:15;;;;;;;;;;;;;;;8.71;47.63;101219.78;6189540;23;20513;-76
2021/01/06 06:55:46;;;;;;;;;;;;;;;8.69;47.65;101224.19;6184634;23;19925;-77
2021/01/06 06:58:19;;;;;;;;;;;;;;;8.66;47.91;101225.09;6158766;22;20405;-77
2021/01/06 07:00:47;;;;;;;;;;;;;;;8.64;48.18;101222.47;6187110;23;19942;-78
2021/01/06 07:03:36;;;;;;;;;;;;;;;8.62;48.64;101212.84;6189208;23;19924;-78
2021/01/06 07:06:07;;;;;;;;;;;;;;;8.61;48.33;101224.25;6188064;23;19943;-78
2021/01/06 07:08:37;;;;;;;;;;;;;;;8.61;48.62;101209.31;6161929;22;19924;-79
2021/01/06 07:11:05;;;;;;;;;;;;;;;8.65;49.06;101218.06;6184503;22;19924;-78
2021/01/06 07:13:33;;;;;;;;;;;;;;;8.62;48.87;101215.47;6185436;23;19925;-78
2021/01/06 07:16:05;;;;;;;;;;;;;;;8.61;49.04;101208.44;6163266;23;20352;-79
2021/01/06 07:18:35;;;;;;;;;;;;;;;8.57;48.54;101210.22;6190272;23;19964;-78
2021/01/06 07:21:15;;;;;;;;;;;;;;;8.53;49.44;101205.88;6162642;23;20311;-78
2021/01/06 07:23:45;;;;;;;;;;;;;;;8.52;49.20;101204.13;6183734;23;19925;-77
2021/01/06 07:26:14;;;;;;;;;;;;;;;8.52;48.80;101209.41;6185498;23;19930;-78
2021/01/06 07:28:41;;;;;;;;;;;;;;;8.50;48.73;101205.03;6188807;23;19924;-78
2021/01/06 07:31:10;;;;;;;;;;;;;;;8.50;49.12;101198.03;6190227;23;19963;-78
2021/01/06 07:33:39;;;;;;;;;;;;;;;8.49;49.50;101201.56;6191452;22;19924;-79
2021/01/06 07:36:13;;;;;;;;;;;;;;;8.49;49.30;101196.28;6189250;23;19940;-78
2021/01/06 07:38:40;;;;;;;;;;;;;;;8.47;49.32;101195.44;6160128;23;20490;-78
2021/01/06 07:41:07;;;;;;;;;;;;;;;8.50;49.92;101192.75;6185807;23;19942;-78
2021/01/06 07:43:36;;;;;;;;;;;;;;;8.49;49.14;101187.50;6191335;23;19920;-79
2021/01/06 07:46:21;;;;;;;;;;;;;;;8.49;49.91;101192.78;6191153;23;19920;-78
2021/01/06 07:49:03;;;;;;;;;;;;;;;8.51;49.38;101194.50;6189318;23;19920;-78
2021/01/06 07:51:35;;;;;;;;;;;;;;;8.50;49.67;101194.50;6188753;23;19969;-79
2021/01/06 07:54:06;;;;;;;;;;;;;;;8.55;49.56;101190.94;6157027;23;19969;-78
2021/01/06 07:56:37;;;;;;;;;;;;;;;8.60;49.24;101182.97;6185953;22;19921;-77
2021/01/06 07:59:14;;;;;;;;;;;;;;;8.63;48.99;101185.56;6185875;23;20397;-78
2021/01/06 08:01:47;;;;;;;;;;;;;;;8.64;49.34;101185.56;6186926;23;19946;-80
2021/01/06 08:04:22;;;;;;;;;;;;;;;8.72;49.37;101196.00;6157633;23;19924;-77
2021/01/06 08:06:54;;;;;;;;;;;;;;;8.74;48.76;101177.53;6180527;23;19955;-79
2021/01/06 08:09:28;;;;;;;;;;;;;;;8.77;49.34;101170.44;6176654;23;20007;-80
2021/01/06 08:11:56;;;;;;;;;;;;;;;8.82;48.99;101180.91;6156631;22;19926;-81
2021/01/06 08:14:25;;;;;;;;;;;;;;;8.84;48.84;101178.25;6157051;23;19924;-81
2021/01/06 08:16:54;;;;;;;;;;;;;;;8.88;48.88;101170.28;6183645;23;19932;-83
2021/01/06 08:19:24;;;;;;;;;;;;;;;8.87;49.03;101159.78;6183607;23;19921;-78
2021/01/06 08:21:53;;;;;;;;;;;;;;;8.91;48.83;101159.69;6177380;23;19942;-80
2021/01/06 08:24:31;;;;;;;;;;;;;;;8.95;49.01;101163.16;6179479;23;19951;-81
2021/01/06 08:26:59;;;;;;;;;;;;;;;8.95;48.91;101160.53;6179602;23;19925;-81
2021/01/06 08:29:27;;;;;;;;;;;;;;;8.95;48.46;101166.66;6183239;23;19924;-83
2021/01/06 08:31:57;;;;;;;;;;;;;;;8.94;49.00;101156.13;6184250;23;19927;-78
2021/01/06 08:34:29;;;;;;;;;;;;;;;8.95;48.63;101147.34;6154312;23;19921;-82
2021/01/06 08:37:00;;;;;;;;;;;;;;;8.97;48.62;101148.19;6179407;23;19920;-80
2021/01/06 08:54:27;;;;;;;;;;;;;;;8.93;49.28;101144.72;6101519;23;19932;-76
2021/01/06 08:56:59;;;;;;;;;;;;;;;8.92;49.20;101148.25;6105767;23;20008;-79
2021/01/06 08:59:35;;;;;;;;;;;;;;;8.92;49.42;101145.59;6103027;23;19931;-78
2021/01/06 09:02:03;;;;;;;;;;;;;;;8.90;49.39;101143.88;6103477;23;19950;-77
2021/01/06 09:04:48;;;;;;;;;;;;;;;8.89;49.29;101147.41;6093755;23;19932;-77
2021/01/06 09:07:20;;;;;;;;;;;;;;;8.89;49.39;101143.03;6100192;23;19925;-76
2021/01/06 09:10:04;;;;;;;;;;;;;;;8.85;49.15;101149.25;6103251;23;19939;-76
2021/01/06 09:12:44;;;;;;;;;;;;;;;8.85;49.31;101151.00;6106760;23;20143;-76
2021/01/06 09:15:21;;;;;;;;;;;;;;;8.82;49.54;101144.00;6099408;23;20354;-77
2021/01/06 09:17:50;;;;;;;;;;;;;;;8.82;49.40;101146.63;6098143;23;20345;-77
2021/01/06 09:20:20;;;;;;;;;;;;;;;8.83;49.53;101143.09;6098655;23;19955;-78
2021/01/06 09:22:48;;;;;;;;;;;;;;;8.84;50.00;101149.25;6113109;23;19971;-78
2021/01/06 09:25:17;;;;;;;;;;;;;;;8.84;49.92;101142.22;6111898;22;19924;-83
2021/01/06 09:27:46;;;;;;;;;;;;;;;8.82;49.32;101154.53;6136585;23;20429;-77
2021/01/06 09:30:21;;;;;;;;;;;;;;;8.83;49.56;101142.25;6133492;23;19931;-78
2021/01/06 09:32:50;;;;;;;;;;;;;;;8.79;50.01;101144.03;6124256;23;19928;-78
2021/01/06 09:35:24;;;;;;;;;;;;;;;8.79;49.51;101147.53;6134217;23;19928;-78
2021/01/06 09:37:57;;;;;;;;;;;;;;;8.77;49.86;101141.44;6113011;23;19924;-81
2021/01/06 09:40:29;;;;;;;;;;;;;;;8.76;49.80;101139.69;6082470;23;20348;-76
2021/01/06 09:45:54;;;;;;;;;;;;;;;8.80;49.64;101136.09;6077905;23;20129;-78
2021/01/06 09:48:33;;;;;;;;;;;;;;;8.82;49.46;101138.72;6050042;23;19925;-78
2021/01/06 09:51:01;;;;;;;;;;;;;;;8.83;49.51;101135.19;6055464;23;20270;-79
2021/01/06 09:53:33;;;;;;;;;;;;;;;8.81;49.94;101136.97;6061147;23;20381;-75
2021/01/06 09:56:01;;;;;;;;;;;;;;;8.85;50.04;101132.53;6052975;23;20362;-76
2021/01/06 09:58:35;;;;;;;;;;;;;;;8.84;50.56;101133.41;6044702;23;20342;-77
2021/01/06 10:01:18;;;;;;;;;;;;;;;8.85;49.99;101124.59;6037672;23;20055;-77
2021/01/06 10:03:54;;;;;;;;;;;;;;;8.81;50.18;101123.78;6065117;23;19925;-78
2021/01/06 10:06:49;;;;;;;;;;;;;;;8.78;50.05;101124.69;6044555;23;20425;-77
2021/01/06 10:09:27;;;;;;;;;;;;;;;8.80;49.84;101119.41;6055894;23;20275;-76
2021/01/06 10:12:13;;;;;;;;;;;;;;;8.76;50.27;101113.31;6047351;23;19928;-77
2021/01/06 10:14:49;;;;;;;;;;;;;;;8.76;50.42;101117.69;6045421;23;20634;-78
2021/01/06 10:17:24;;;;;;;;;;;;;;;8.76;50.05;101118.56;6071258;23;19924;-78
2021/01/06 10:19:59;;;;;;;;;;;;;;;8.74;50.18;101117.72;6074452;23;20316;-79
2021/01/06 10:22:31;;;;;;;;;;;;;;;8.74;50.04;101106.28;6046399;23;20075;-76
2021/01/06 10:25:07;;;;;;;;;;;;;;;8.73;50.36;101112.47;6048035;23;19925;-78
2021/01/06 10:27:39;;;;;;;;;;;;;;;8.73;50.01;101109.81;6048503;23;20315;-78
2021/01/06 10:30:13;;;;;;;;;;;;;;;8.74;49.83;101104.53;6042882;23;20327;-77
2021/01/06 10:32:50;;;;;;;;;;;;;;;8.74;50.13;101107.16;6075810;23;19931;-79
2021/01/06 10:35:47;;;;;;;;;;;;;;;8.74;50.12;101095.75;6102384;23;19982;-78
2021/01/06 10:38:29;;;;;;;;;;;;;;;8.74;50.41;101101.88;6166126;23;20242;-81
2021/01/06 10:41:11;;;;;;;;;;;;;;;8.75;50.40;101093.09;6105843;23;19932;-77
2021/01/06 10:43:41;;;;;;;;;;;;;;;8.79;49.96;101088.66;6095944;23;19996;-77
2021/01/06 10:46:29;;;;;;;;;;;;;;;8.83;49.67;101095.63;6100847;23;19925;-78
2021/01/06 10:48:56;;;;;;;;;;;;;;;8.90;49.41;101089.34;6104309;23;19929;-78
2021/01/06 10:51:45;;;;;;;;;;;;;;;9.00;49.19;101089.22;6106071;23;20210;-79
2021/01/06 10:54:16;;;;;;;;;;;;;;;8.87;49.77;101092.03;6076092;23;19963;-77
2021/01/06 10:56:52;;;;;;;;;;;;;;;9.15;54.16;101083.69;6068393;23;19957;-76
2021/01/06 11:22:38;;;;;;;;;;;;;;;9.40;49.98;101054.22;6133807;22;19989;-78
2021/01/06 11:25:49;;;;;;;;;;;;;;;9.51;48.39;101051.38;6135994;23;20009;-78
2021/01/06 11:32:30;;;;;;;;;;;;;;;9.53;46.52;101046.97;6158914;22;20482;-78
2021/01/06 11:35:33;;;;;;;;;;;;;;;9.52;45.95;101035.53;6136476;23;19931;-80
2021/01/06 13:01:24;;;;;;;;;;;;;;;8.78;54.83;100944.44;6130582;23;20073;-78
2021/01/06 13:07:56;;;;;;;;;;;;;;;9.08;52.46;100940.41;6173744;23;19932;-79
2021/01/06 13:10:28;;;;;;;;;;;;;;;9.10;50.82;100943.88;6153610;23;19989;-78
2021/01/06 13:12:57;;;;;;;;;;;;;;;9.11;49.64;100937.72;6175184;23;19925;-78
2021/01/06 13:15:26;;;;;;;;;;;;;;;9.12;49.46;100941.22;6179344;23;19924;-77
2021/01/06 13:18:02;;;;;;;;;;;;;;;9.11;47.97;100928.91;6180947;23;20324;-76
2021/01/06 13:20:42;;;;;;;;;;;;;;;9.13;47.92;100937.69;6146004;22;20008;-77
2021/01/06 13:23:33;;;;;;;;;;;;;;;9.13;47.11;100938.53;6179260;23;19940;-77
2021/01/06 13:26:13;;;;;;;;;;;;;;;8.93;48.04;100936.28;6186555;23;19936;-78
2021/01/06 13:28:39;;;;;;;;;;;;;;;8.80;49.21;100940.03;6179300;23;19924;-78
2021/01/06 13:31:26;;;;;;;;;;;;;;;8.78;49.90;100936.53;6151195;23;20148;-77
2021/01/06 13:34:02;;;;;;;;;;;;;;;8.85;49.59;100943.47;6176617;23;20403;-76
2021/01/06 13:39:43;;;;;;;;;;;;;;;9.02;47.57;100931.72;6178743;23;20385;-76
2021/01/06 13:42:23;;;;;;;;;;;;;;;9.05;46.46;100934.28;6152569;23;19928;-78
2021/01/06 13:44:53;;;;;;;;;;;;;;;9.09;45.84;100925.44;6152387;23;19924;-84
2021/01/06 13:47:22;;;;;;;;;;;;;;;9.13;45.52;100922.72;6175079;23;19924;-79
2021/01/06 13:50:20;;;;;;;;;;;;;;;9.17;45.18;100920.03;6173264;23;20035;-80
2021/01/06 13:52:51;;;;;;;;;;;;;;;9.21;44.58;100927.84;6180638;23;20103;-82
2021/01/06 13:55:31;;;;;;;;;;;;;;;9.25;44.10;100926.88;6179551;23;19969;-85
2021/01/06 13:58:02;;;;;;;;;;;;;;;9.11;44.32;100923.63;6182143;23;19931;-82
2021/01/06 14:00:41;;;;;;;;;;;;;;;8.95;44.87;100929.19;6179245;23;20130;-82
2021/01/06 14:03:21;;;;;;;;;;;;;;;8.85;46.00;100927.63;6176205;23;19924;-87
2021/01/06 14:06:02;;;;;;;;;;;;;;;8.78;46.88;100926.84;6300392;22;20651;-86
2021/01/06 14:22:39;;;;;;;;;;;;;;;8.84;48.99;100925.00;6178957;23;20497;-80
2021/01/06 14:25:28;;;;;;;;;;;;;;;8.83;49.08;100923.28;6178965;23;19931;-77
2021/01/06 14:28:02;;;;;;;;;;;;;;;8.82;49.56;100925.03;6179568;23;19976;-79
2021/01/06 14:30:33;;;;;;;;;;;;;;;8.78;49.53;100920.69;6175309;23;19924;-80
2021/01/06 14:33:03;;;;;;;;;;;;;;;8.79;49.48;100918.03;6150201;22;19948;-78
2021/01/06 14:35:39;;;;;;;;;;;;;;;8.76;49.93;100920.72;6179561;23;19930;-77
2021/01/06 14:38:14;;;;;;;;;;;;;;;8.75;49.89;100912.84;6153165;23;19973;-80
2021/01/06 14:40:46;;;;;;;;;;;;;;;8.73;50.80;100912.88;6179805;23;19978;-79
2021/01/06 14:43:20;;;;;;;;;;;;;;;8.74;50.82;100911.09;6177358;23;19968;-77
2021/01/06 14:45:55;;;;;;;;;;;;;;;8.73;50.16;100917.28;6174094;23;19924;-79
2021/01/06 14:48:27;;;;;;;;;;;;;;;8.71;51.10;100911.16;6177074;23;19924;-81
2021/01/06 14:51:00;;;;;;;;;;;;;;;8.68;50.51;100917.38;6177582;23;19998;-78
2021/01/06 14:53:38;;;;;;;;;;;;;;;8.67;51.11;100912.09;6151903;23;19955;-78
2021/01/06 14:56:08;;;;;;;;;;;;;;;8.62;50.94;100915.69;6176284;23;19983;-79
2021/01/06 14:58:38;;;;;;;;;;;;;;;8.61;51.44;100911.28;6177093;23;19950;-77
2021/01/06 15:01:08;;;;;;;;;;;;;;;8.59;51.07;100918.38;6146816;23;19948;-78
2021/01/06 15:03:54;;;;;;;;;;;;;;;8.58;51.08;100921.91;6173497;23;19932;-80
2021/01/06 15:06:24;;;;;;;;;;;;;;;8.58;51.77;100921.03;6151035;23;19924;-80
2021/01/06 15:08:59;;;;;;;;;;;;;;;8.53;51.66;100921.09;6150553;23;19932;-78
2021/01/06 15:11:32;;;;;;;;;;;;;;;8.51;52.07;100920.28;6150947;23;19981;-79
2021/01/06 15:14:01;;;;;;;;;;;;;;;8.50;52.36;100931.72;6175531;23;19920;-79
2021/01/06 15:19:11;;;;;;;;;;;;;;;8.46;51.90;100915.06;6102994;23;19960;-79
2021/01/06 15:21:40;;;;;;;;;;;;;;;8.47;52.53;100916.81;6109020;23;19952;-79
2021/01/06 15:24:11;;;;;;;;;;;;;;;8.45;52.43;100910.69;6105073;23;19924;-80
2021/01/06 15:26:41;;;;;;;;;;;;;;;8.43;52.01;100899.28;6107167;23;19925;-79
2021/01/06 15:29:15;;;;;;;;;;;;;;;8.41;52.52;100901.03;6100671;23;19925;-79
2021/01/06 15:31:46;;;;;;;;;;;;;;;8.39;52.96;100907.25;6100660;23;19929;-77
2021/01/06 15:34:16;;;;;;;;;;;;;;;8.35;52.70;100902.91;6101789;23;19987;-80
2021/01/06 15:36:43;;;;;;;;;;;;;;;8.33;52.80;100902.94;6105706;23;20666;-78
2021/01/06 15:39:16;;;;;;;;;;;;;;;8.32;52.80;100901.19;6106295;23;20536;-78
2021/01/06 15:41:45;;;;;;;;;;;;;;;8.30;52.79;100903.88;6077543;23;19929;-81
2021/01/06 15:44:15;;;;;;;;;;;;;;;8.29;52.94;100903.88;6100653;23;20193;-80
2021/01/06 15:46:44;;;;;;;;;;;;;;;8.26;53.07;100896.91;6106455;23;19925;-80